createdAt,value
2023-03-02T00:02:47.947Z,2.30
2023-03-02T00:06:10.855Z,2.23
2023-03-02T00:09:33.941Z,2.33
2023-03-02T00:12:55.438Z,2.70
2023-03-02T00:16:17.302Z,3.07
2023-03-02T00:19:39.431Z,2.57
2023-03-02T00:23:01.531Z,2.70
2023-03-02T00:26:24.778Z,2.57
2023-03-02T00:29:46.736Z,2.80
2023-03-02T00:33:09.247Z,2.70
2023-03-02T00:36:30.680Z,3.40
2023-03-02T00:39:53.069Z,3.10
2023-03-02T00:43:16.604Z,2.93
2023-03-02T00:46:38.203Z,3.37
2023-03-02T00:50:00.097Z,4.20
2023-03-02T00:53:21.980Z,3.97
2023-03-02T00:56:44.097Z,4.30
2023-03-02T01:00:09.284Z,3.33
2023-03-02T01:03:35.223Z,4.20
2023-03-02T01:06:57.721Z,3.70
2023-03-02T01:10:19.795Z,3.13
2023-03-02T01:13:41.565Z,3.70
2023-03-02T01:17:05.436Z,3.50
2023-03-02T01:20:28.381Z,3.00
2023-03-02T01:23:51.392Z,3.37
2023-03-02T01:27:13.445Z,3.00
2023-03-02T01:30:35.117Z,3.40
2023-03-02T01:33:58.563Z,2.83
2023-03-02T01:37:20.897Z,3.27
2023-03-02T01:40:42.765Z,2.60
2023-03-02T01:44:04.992Z,3.03
2023-03-02T01:47:29.451Z,3.13
2023-03-02T01:50:59.664Z,2.90
2023-03-02T01:54:24.305Z,2.80
2023-03-02T01:57:55.410Z,2.90
2023-03-02T02:01:18.544Z,3.10
2023-03-02T02:04:43.431Z,3.37
2023-03-02T02:08:07.438Z,3.03
2023-03-02T02:11:29.588Z,3.07
2023-03-02T02:14:51.562Z,3.50
2023-03-02T02:18:14.037Z,3.70
2023-03-02T02:21:35.734Z,3.53
2023-03-02T02:25:03.083Z,3.33
2023-03-02T02:28:30.379Z,3.23
2023-03-02T02:31:57.142Z,3.17
2023-03-02T02:35:23.444Z,3.30
2023-03-02T02:38:49.028Z,3.23
2023-03-02T02:42:17.374Z,3.17
2023-03-02T02:45:40.925Z,3.17
2023-03-02T02:49:04.149Z,3.33
2023-03-02T02:52:29.471Z,3.47
2023-03-02T02:55:55.520Z,3.27
2023-03-02T02:59:21.680Z,3.80
2023-03-02T03:02:48.817Z,3.70
2023-03-02T03:06:18.787Z,3.60
2023-03-02T03:09:40.497Z,2.97
2023-03-02T03:13:03.600Z,3.00
2023-03-02T03:16:28.210Z,3.50
2023-03-02T03:19:51.252Z,3.50
2023-03-02T03:23:13.356Z,3.30
2023-03-02T03:26:35.261Z,3.73
2023-03-02T03:29:58.285Z,5.50
2023-03-02T03:33:20.111Z,5.83
2023-03-02T03:36:44.416Z,6.23
2023-03-02T03:40:09.547Z,5.80
2023-03-02T03:43:33.168Z,7.47
2023-03-02T03:46:55.037Z,7.53
2023-03-02T03:50:16.851Z,7.40
2023-03-02T03:53:40.615Z,7.87
2023-03-02T03:57:02.205Z,8.00
2023-03-02T04:00:24.926Z,8.27
2023-03-02T04:03:52.961Z,8.83
2023-03-02T04:07:15.564Z,9.83
2023-03-02T04:10:40.367Z,9.73
2023-03-02T04:14:02.351Z,9.50
2023-03-02T04:17:24.881Z,11.07
2023-03-02T04:20:46.477Z,11.77
2023-03-02T04:24:09.291Z,13.23
2023-03-02T04:27:32.154Z,13.67
2023-03-02T04:30:54.293Z,12.40
2023-03-02T04:34:16.224Z,12.57
2023-03-02T04:37:39.958Z,13.23
2023-03-02T04:41:02.247Z,13.83
2023-03-02T04:44:25.727Z,13.73
2023-03-02T04:47:47.559Z,13.10
2023-03-02T04:51:17.473Z,12.20
2023-03-02T04:54:39.459Z,12.47
2023-03-02T04:58:00.904Z,11.97
2023-03-02T05:01:25.247Z,11.83
2023-03-02T05:04:47.527Z,10.20
2023-03-02T05:08:09.319Z,10.57
2023-03-02T05:11:31.610Z,10.57
2023-03-02T05:14:53.483Z,11.33
2023-03-02T05:18:16.747Z,10.70
2023-03-02T05:21:38.989Z,9.90
2023-03-02T05:25:00.890Z,9.77
2023-03-02T05:28:24.017Z,9.13
2023-03-02T05:31:47.188Z,9.03
2023-03-02T05:35:11.492Z,8.67
2023-03-02T05:38:33.334Z,8.70
2023-03-02T05:41:55.304Z,8.93
2023-03-02T05:45:21.239Z,8.63
2023-03-02T05:48:43.133Z,8.17
2023-03-02T05:52:06.606Z,6.83
2023-03-02T05:55:28.553Z,7.23
2023-03-02T05:58:50.467Z,6.87
2023-03-02T06:02:12.486Z,6.67
2023-03-02T06:05:34.629Z,6.50
2023-03-02T06:08:57.893Z,6.73
2023-03-02T06:12:19.951Z,6.60
2023-03-02T06:15:43.109Z,6.30
2023-03-02T06:19:06.208Z,5.80
2023-03-02T06:22:28.110Z,6.00
2023-03-02T06:25:51.429Z,6.10
2023-03-02T06:29:13.327Z,6.10
2023-03-02T06:32:35.638Z,6.10
2023-03-02T06:35:58.254Z,6.30
2023-03-02T06:39:19.855Z,7.07
2023-03-02T06:42:43.986Z,7.73
2023-03-02T06:46:05.920Z,8.20
2023-03-02T06:49:27.796Z,8.03
2023-03-02T06:52:49.573Z,8.93
2023-03-02T06:56:11.798Z,8.47
2023-03-02T06:59:34.712Z,9.17
2023-03-02T07:02:57.533Z,9.20
2023-03-02T07:06:19.091Z,9.17
2023-03-02T07:09:41.093Z,9.13
2023-03-02T07:13:02.827Z,9.20
2023-03-02T07:16:26.157Z,9.47
2023-03-02T07:19:48.654Z,9.43
2023-03-02T07:23:10.375Z,8.70
2023-03-02T07:26:31.804Z,9.10
2023-03-02T07:29:54.064Z,9.43
2023-03-02T07:33:17.161Z,8.97
2023-03-02T07:36:38.688Z,10.47
2023-03-02T07:40:01.000Z,9.03
2023-03-02T07:43:24.059Z,9.03
2023-03-02T07:46:46.060Z,9.87
2023-03-02T07:50:10.737Z,8.97
2023-03-02T07:53:32.767Z,9.93
2023-03-02T07:56:54.504Z,9.33
2023-03-02T08:00:17.592Z,7.10
2023-03-02T08:03:39.908Z,8.07
2023-03-02T08:07:02.832Z,6.83
2023-03-02T08:10:24.838Z,7.57
2023-03-02T08:13:47.119Z,8.33
2023-03-02T08:17:08.653Z,8.63
2023-03-02T08:20:30.690Z,9.23
2023-03-02T08:23:54.204Z,5.73
2023-03-02T08:27:16.706Z,7.90
2023-03-02T08:30:38.700Z,6.87
2023-03-02T08:34:00.674Z,6.20
2023-03-02T08:37:22.997Z,6.33
2023-03-02T08:40:47.132Z,5.87
2023-03-02T08:44:09.162Z,7.00
2023-03-02T08:47:31.091Z,6.13
2023-03-02T08:50:57.755Z,6.77
2023-03-02T08:54:19.413Z,6.70
2023-03-02T08:57:42.836Z,7.93
2023-03-02T09:01:05.516Z,6.33
2023-03-02T09:04:27.504Z,7.70
2023-03-02T09:07:49.552Z,6.67
2023-03-02T09:11:11.613Z,7.83
2023-03-02T09:14:34.748Z,8.23
2023-03-02T09:17:56.184Z,8.17
2023-03-02T09:21:18.446Z,8.47
2023-03-02T09:24:40.181Z,9.40
2023-03-02T09:28:01.836Z,9.17
2023-03-02T09:31:25.413Z,10.47
2023-03-02T09:34:48.265Z,9.70
2023-03-02T09:38:12.724Z,9.77
2023-03-02T09:42:07.187Z,10.30
2023-03-02T09:46:03.910Z,10.50
2023-03-02T09:49:38.041Z,11.10
2023-03-02T09:53:25.721Z,10.07
2023-03-02T09:56:51.341Z,11.87
2023-03-02T10:00:19.982Z,12.80
2023-03-02T10:03:49.377Z,12.50
2023-03-02T10:07:16.047Z,10.90
2023-03-02T10:10:45.053Z,12.23
2023-03-02T10:14:12.006Z,11.90
2023-03-02T10:17:44.780Z,10.97
2023-03-02T10:21:13.932Z,10.93
2023-03-02T10:24:41.594Z,10.87
2023-03-02T10:28:16.899Z,11.47
2023-03-02T10:31:41.615Z,9.97
2023-03-02T10:35:14.768Z,10.33
2023-03-02T10:38:38.110Z,10.70
2023-03-02T10:42:05.645Z,11.97
2023-03-02T10:45:30.914Z,11.90
2023-03-02T10:48:56.235Z,12.13
2023-03-02T10:52:20.402Z,9.87
2023-03-02T10:55:45.992Z,10.83
2023-03-02T10:59:32.941Z,11.60
2023-03-02T11:02:56.695Z,9.73
2023-03-02T11:06:21.018Z,9.97
2023-03-02T11:09:43.276Z,10.63
2023-03-02T11:13:18.845Z,10.50
2023-03-02T11:16:42.053Z,11.13
2023-03-02T11:20:05.227Z,11.57
2023-03-02T11:23:34.264Z,11.93
2023-03-02T11:26:59.763Z,11.70
2023-03-02T11:30:26.968Z,12.57
2023-03-02T11:34:16.661Z,12.80
2023-03-02T11:37:44.086Z,12.67
2023-03-02T11:41:13.119Z,13.70
2023-03-02T11:44:34.995Z,13.63
2023-03-02T11:48:03.461Z,13.07
2023-03-02T11:51:29.439Z,12.47
2023-03-02T11:54:56.179Z,12.80
2023-03-02T11:58:20.691Z,13.93
2023-03-02T12:01:45.990Z,11.30
2023-03-02T12:05:23.475Z,11.37
2023-03-02T12:08:49.312Z,11.77
2023-03-02T12:12:33.618Z,12.60
2023-03-02T12:15:56.298Z,11.07
2023-03-02T12:19:28.212Z,12.43
2023-03-02T12:22:49.752Z,13.30
2023-03-02T12:26:28.088Z,13.23
2023-03-02T12:29:52.792Z,12.87
2023-03-02T12:33:22.546Z,12.87
2023-03-02T12:36:45.081Z,14.13
2023-03-02T12:40:26.514Z,13.93
2023-03-02T12:43:59.529Z,15.30
2023-03-02T12:47:27.379Z,15.33
2023-03-02T12:50:49.943Z,17.17
2023-03-02T12:54:15.505Z,17.10
2023-03-02T12:57:39.217Z,16.97
2023-03-02T13:01:04.208Z,17.93
2023-03-02T13:04:28.204Z,17.80
2023-03-02T13:07:57.677Z,16.57
2023-03-02T13:11:26.924Z,20.90
2023-03-02T13:14:53.159Z,19.80
2023-03-02T13:18:16.783Z,18.87
2023-03-02T13:21:40.310Z,17.40
2023-03-02T13:25:03.688Z,17.53
2023-03-02T13:28:30.163Z,16.17
2023-03-02T13:31:52.316Z,16.80
2023-03-02T13:35:28.001Z,15.80
2023-03-02T13:38:51.936Z,15.13
2023-03-02T13:42:27.099Z,15.47
2023-03-02T13:45:53.859Z,14.60
2023-03-02T13:49:26.360Z,14.97
2023-03-02T13:52:50.108Z,14.37
2023-03-02T13:56:17.779Z,14.13
2023-03-02T13:59:39.750Z,13.00
2023-03-02T14:03:02.940Z,13.53
2023-03-02T14:06:24.543Z,13.20
2023-03-02T14:09:48.190Z,14.03
2023-03-02T14:13:14.347Z,14.37
2023-03-02T14:16:36.101Z,13.13
2023-03-02T14:19:57.703Z,12.67
2023-03-02T14:23:19.590Z,11.87
2023-03-02T14:26:46.368Z,13.20
2023-03-02T14:30:16.985Z,12.00
2023-03-02T14:33:39.015Z,11.00
2023-03-02T14:37:05.020Z,11.10
2023-03-02T14:40:28.893Z,10.93
2023-03-02T14:43:52.618Z,11.93
2023-03-02T14:47:16.653Z,11.90
2023-03-02T14:50:41.076Z,10.43
2023-03-02T14:54:06.420Z,10.23
2023-03-02T14:57:29.888Z,10.83
2023-03-02T15:00:52.910Z,11.30
2023-03-02T15:04:14.773Z,10.03
2023-03-02T15:07:37.157Z,11.53
2023-03-02T15:10:59.200Z,10.43
2023-03-02T15:14:21.191Z,9.93
2023-03-02T15:17:44.474Z,10.23
2023-03-02T15:21:07.302Z,10.40
2023-03-02T15:24:30.777Z,12.10
2023-03-02T15:27:56.713Z,10.50
2023-03-02T15:31:19.244Z,10.23
2023-03-02T15:34:42.410Z,11.13
2023-03-02T15:38:04.591Z,11.03
2023-03-02T15:41:26.306Z,11.17
2023-03-02T15:44:48.533Z,10.67
2023-03-02T15:48:12.067Z,10.40
2023-03-02T15:51:36.559Z,9.73
2023-03-02T15:54:58.337Z,9.57
2023-03-02T15:58:21.887Z,10.60
2023-03-02T16:01:43.836Z,10.37
2023-03-02T16:05:06.714Z,11.83
2023-03-02T16:08:29.920Z,10.73
2023-03-02T16:11:51.827Z,10.93
2023-03-02T16:15:13.452Z,11.50
2023-03-02T16:18:35.077Z,10.83
2023-03-02T16:21:56.806Z,11.87
2023-03-02T16:25:20.154Z,11.73
2023-03-02T16:28:41.844Z,12.20
2023-03-02T16:32:03.540Z,11.87
2023-03-02T16:35:25.491Z,11.37
2023-03-02T16:38:47.024Z,11.67
2023-03-02T16:42:10.447Z,11.87
2023-03-02T16:45:32.205Z,12.33
2023-03-02T16:48:54.674Z,12.70
2023-03-02T16:52:17.643Z,11.70
2023-03-02T16:55:40.649Z,13.20
2023-03-02T16:59:03.885Z,15.17
2023-03-02T17:02:25.638Z,13.27
2023-03-02T17:05:47.743Z,13.27
2023-03-02T17:09:09.432Z,12.40
2023-03-02T17:12:31.327Z,11.60
2023-03-02T17:15:54.927Z,12.67
2023-03-02T17:19:16.560Z,13.00
2023-03-02T17:22:38.848Z,13.33
2023-03-02T17:26:00.769Z,11.87
2023-03-02T17:29:22.934Z,12.57
2023-03-02T17:32:45.956Z,13.57
2023-03-02T17:36:11.873Z,12.97
2023-03-02T17:39:33.487Z,12.60
2023-03-02T17:42:57.679Z,12.00
2023-03-02T17:46:22.767Z,12.00
2023-03-02T17:49:46.241Z,13.13
2023-03-02T17:53:07.809Z,12.30
2023-03-02T17:56:30.154Z,12.27
2023-03-02T17:59:52.400Z,11.87
2023-03-02T18:03:14.107Z,12.00
2023-03-02T18:06:37.609Z,12.00
2023-03-02T18:09:59.602Z,11.17
2023-03-02T18:13:21.476Z,11.20
2023-03-02T18:16:43.511Z,11.87
2023-03-02T18:20:05.661Z,11.57
2023-03-02T18:23:28.734Z,11.77
2023-03-02T18:26:50.726Z,11.53
2023-03-02T18:30:13.487Z,11.53
2023-03-02T18:33:36.213Z,11.50
2023-03-02T18:36:58.012Z,11.03
2023-03-02T18:40:21.362Z,10.80
2023-03-02T18:43:43.767Z,10.37
2023-03-02T18:47:05.384Z,10.47
2023-03-02T18:50:27.655Z,11.60
2023-03-02T18:53:49.872Z,10.97
2023-03-02T18:57:13.395Z,11.40
2023-03-02T19:00:36.291Z,11.37
2023-03-02T19:03:59.313Z,12.47
2023-03-02T19:07:21.090Z,11.40
2023-03-02T19:10:43.020Z,10.93
2023-03-02T19:14:06.924Z,12.37
2023-03-02T19:17:28.821Z,11.30
2023-03-02T19:20:51.892Z,13.07
2023-03-02T19:24:13.594Z,12.03
2023-03-02T19:27:35.459Z,12.10
2023-03-02T19:30:58.638Z,12.53
2023-03-02T19:34:20.337Z,12.27
2023-03-02T19:37:42.164Z,11.20
2023-03-02T19:41:03.448Z,12.43
2023-03-02T19:44:25.648Z,12.13
2023-03-02T19:47:49.875Z,12.47
2023-03-02T19:51:13.508Z,12.63
2023-03-02T19:54:35.140Z,12.20
2023-03-02T19:58:01.962Z,13.43
2023-03-02T20:01:27.856Z,13.60
2023-03-02T20:04:52.242Z,13.40
2023-03-02T20:08:14.887Z,14.90
2023-03-02T20:11:38.250Z,14.77
2023-03-02T20:15:00.197Z,15.43
2023-03-02T20:18:21.996Z,15.00
2023-03-02T20:21:45.347Z,15.70
2023-03-02T20:25:08.123Z,15.53
2023-03-02T20:28:30.188Z,15.90
2023-03-02T20:31:52.071Z,16.03
2023-03-02T20:35:14.272Z,15.60
2023-03-02T20:38:40.878Z,15.67
2023-03-02T20:42:03.597Z,15.27
2023-03-02T20:45:25.503Z,17.03
2023-03-02T20:48:47.228Z,18.00
2023-03-02T20:52:09.776Z,17.23
2023-03-02T20:55:33.524Z,17.47
2023-03-02T20:58:55.147Z,17.17
2023-03-02T21:02:19.459Z,16.90
2023-03-02T21:05:43.945Z,17.10
2023-03-02T21:09:07.483Z,17.37
2023-03-02T21:12:30.731Z,17.60
2023-03-02T21:15:52.318Z,17.33
2023-03-02T21:19:17.216Z,17.47
2023-03-02T21:22:39.703Z,17.53
2023-03-02T21:26:01.742Z,19.17
2023-03-02T21:29:26.725Z,16.00
2023-03-02T21:32:48.618Z,17.50
2023-03-02T21:36:15.850Z,16.20
2023-03-02T21:39:37.782Z,15.27
2023-03-02T21:43:00.450Z,15.23
2023-03-02T21:46:24.740Z,15.20
2023-03-02T21:49:46.955Z,15.80
2023-03-02T21:53:09.370Z,14.97
2023-03-02T21:56:31.039Z,15.07
2023-03-02T21:59:54.762Z,14.47
2023-03-02T22:03:17.709Z,14.57
2023-03-02T22:06:39.540Z,13.83
2023-03-02T22:10:01.243Z,14.77
2023-03-02T22:13:25.484Z,14.37
2023-03-02T22:16:48.257Z,13.33
2023-03-02T22:20:18.940Z,13.53
2023-03-02T22:23:40.440Z,12.40
2023-03-02T22:27:07.627Z,11.97
2023-03-02T22:30:28.959Z,12.27
2023-03-02T22:33:51.031Z,12.30
2023-03-02T22:37:17.568Z,12.20
2023-03-02T22:40:41.314Z,12.70
2023-03-02T22:44:03.869Z,12.03
2023-03-02T22:47:26.189Z,11.60
2023-03-02T22:50:50.898Z,11.40
2023-03-02T22:54:22.913Z,12.33
2023-03-02T22:57:44.849Z,12.07
2023-03-02T23:01:19.510Z,12.20
2023-03-02T23:04:41.282Z,12.97
2023-03-02T23:08:19.017Z,13.33
2023-03-02T23:11:43.085Z,14.27
2023-03-02T23:15:18.307Z,13.77
2023-03-02T23:18:40.522Z,12.73
2023-03-02T23:22:02.713Z,14.27
2023-03-02T23:25:24.209Z,13.03
2023-03-02T23:28:48.344Z,13.77
2023-03-02T23:32:10.406Z,14.13
2023-03-02T23:35:32.758Z,13.97
2023-03-02T23:38:54.606Z,13.47
2023-03-02T23:42:16.532Z,13.17
2023-03-02T23:45:40.309Z,13.03
2023-03-02T23:49:02.288Z,13.27
2023-03-02T23:52:24.268Z,13.37
2023-03-02T23:55:49.333Z,13.07
2023-03-02T23:59:11.380Z,13.17
